Skip Navigation LinksHome page > Weather > Current weather Skip Navigation Links

Current Weather

Chicago Midway, Chicago

For information only: do not use for flight planning or navigation.
Latest weather
Observation time Thursday, November 14, 2019 6:53 PM CST
Local time Thursday, November 14, 2019 7:07 PM CST
Flight conditions Marginal Visual Meteorological Conditions
Winds
Wind direction West (280°)
Wind speed 9 mph
Visibility 10 mi.
Sky condition
Ceiling 2,000 ft. overcast
Cloud layer overcast 2,000 ft.
Temperature 29°F
Dewpoint 20°F
Altimeter 30.31 in.Hg
Derived measurements
Relative humidity 69%
Wind chill 20°F
Density altitude -1817 ft.
Sea-level pressure 30.35 in.Hg
Remarks
Automated weather observing station with precipitation discriminator.
METAR KMDW 150053Z 28008KT 10SM OVC020 M02/M07 A3031 RMK AO2 SLP276 T10171067

Settings

Location code

InnerDrive.Weather 4.0.6770.0 Release CLR 4.0.30319.42000
Copyright ©2018 Inner Drive Technology. All rights reserved. Portions Copyright ©1986-2018 David Braverman.

Find weather

Site navigation


Skip Navigation Links

Place info

Page info

PayPal - The safer, easier way to pay online!

Return home.

Copyright ©2019 Inner Drive Technology. Purveyors of fine, hand-crafted computer software. Page printed 2019-11-15T01:07:57 UTC.